Time;durP1;ratioP1;P1;durP2;ratioP2;P2;SDS_P1;SDS_P2;PMS_P1;PMS_P2;Temp;Humidity;BMP_temperature;BMP_pressure;BME280_temperature;BME280_humidity;BME280_pressure;Samples;Min_cycle;Max_cycle;Signal;HPM_P1;HPM_P2
2022/06/24 00:00:13;;;;;;;;;;;27.30;43.20;;;;;;8464555;28;20087;-41
2022/06/24 00:04:20;;;;;;;;;;;27.30;43.20;;;;;;8464750;28;19919;-41
2022/06/24 00:08:20;;;;;;;3.75;2.10;;;27.30;43.30;;;;;;8464110;28;19947;-41
2022/06/24 00:12:24;;;;;;;;;;;27.20;43.30;;;;;;8464227;28;20030;-41
2022/06/24 00:16:25;;;;;;;2.28;1.83;;;27.30;43.30;;;;;;8463428;27;20288;-41
2022/06/24 00:20:25;;;;;;;;;;;27.20;43.30;;;;;;8463999;28;20055;-41
2022/06/24 00:24:26;;;;;;;3.07;2.47;;;27.20;43.30;;;;;;8463671;28;19918;-41
2022/06/24 00:28:26;;;;;;;;;;;27.20;43.30;;;;;;8463834;28;20040;-41
2022/06/24 00:32:33;;;;;;;4.13;2.30;;;27.20;43.30;;;;;;8463309;28;19911;-41
2022/06/24 00:36:33;;;;;;;4.93;2.33;;;27.20;43.30;;;;;;8463418;28;20035;-41
2022/06/24 00:40:34;;;;;;;;;;;27.20;43.30;;;;;;8463177;28;20383;-41
2022/06/24 00:44:44;;;;;;;2.85;1.83;;;27.20;43.30;;;;;;8463272;28;20370;-41
2022/06/24 00:48:50;;;;;;;2.70;1.92;;;27.20;43.40;;;;;;8463282;28;20028;-39
2022/06/24 00:52:56;;;;;;;1.95;1.58;;;27.20;43.40;;;;;;8462613;28;20048;-41
2022/06/24 00:56:57;;;;;;;5.90;2.55;;;27.10;43.30;;;;;;8463154;28;20116;-41
2022/06/24 01:00:58;;;;;;;;;;;27.10;43.30;;;;;;8463292;28;20046;-42
2022/06/24 01:05:06;;;;;;;3.55;1.80;;;27.10;43.30;;;;;;8465056;27;20391;-42
2022/06/24 01:09:10;;;;;;;3.72;1.90;;;27.10;43.40;;;;;;8469353;28;20123;-41
2022/06/24 01:13:11;;;;;;;3.60;1.52;;;27.10;43.40;;;;;;8469624;28;20112;-41
2022/06/24 01:17:11;;;;;;;;;;;27.10;43.40;;;;;;8469394;28;20510;-42
2022/06/24 01:21:42;;;;;;;2.77;1.63;;;27.10;43.40;;;;;;8469682;28;20010;-41
2022/06/24 01:25:42;;;;;;;2.13;1.70;;;27.10;43.40;;;;;;8468904;28;20035;-41
2022/06/24 01:29:43;;;;;;;;;;;27.10;43.40;;;;;;8469590;27;20481;-42
2022/06/24 01:33:44;;;;;;;4.57;1.92;;;27.00;43.30;;;;;;8469512;28;20287;-41
2022/06/24 01:37:44;;;;;;;;;;;27.00;43.40;;;;;;8468531;28;20035;-42
2022/06/24 01:41:45;;;;;;;3.77;1.47;;;27.00;43.40;;;;;;8468672;28;20380;-41
2022/06/24 01:45:45;;;;;;;;;;;27.00;43.40;;;;;;8468890;28;20047;-41
2022/06/24 01:49:46;;;;;;;2.50;1.50;;;27.00;43.40;;;;;;8467996;27;19912;-41
2022/06/24 01:53:46;;;;;;;;;;;26.90;43.40;;;;;;8469045;28;20492;-41
2022/06/24 01:57:47;;;;;;;3.60;1.60;;;26.90;43.40;;;;;;8468260;28;19927;-42
2022/06/24 02:01:47;;;;;;;;;;;26.90;43.40;;;;;;8468098;28;20063;-41
2022/06/24 02:05:48;;;;;;;2.43;1.57;;;26.90;43.40;;;;;;8468132;27;20280;-41
2022/06/24 02:14:11;;;;;;;2.90;1.63;;;26.90;43.40;;;;;;8455646;28;20557;-40
2022/06/24 02:18:12;;;;;;;2.17;1.30;;;26.90;43.40;;;;;;8463510;27;20050;-40
2022/06/24 02:22:12;;;;;;;;;;;26.90;43.40;;;;;;8467840;28;20122;-40
2022/06/24 02:26:13;;;;;;;2.73;1.57;;;26.90;43.40;;;;;;8466982;28;20262;-41
2022/06/24 02:30:14;;;;;;;2.63;1.70;;;26.80;43.30;;;;;;8467164;28;20024;-41
2022/06/24 02:34:14;;;;;;;;;;;26.90;43.40;;;;;;8467515;28;20035;-40
2022/06/24 02:38:15;;;;;;;2.83;1.20;;;26.80;43.40;;;;;;8466733;28;20356;-40
2022/06/24 02:42:16;;;;;;;;;;;26.80;43.40;;;;;;8467389;27;20492;-40
2022/06/24 02:46:17;;;;;;;1.73;1.48;;;26.80;43.40;;;;;;8466311;27;19951;-41
2022/06/24 02:50:18;;;;;;;3.47;1.33;;;26.80;43.50;;;;;;8466752;28;20481;-40
2022/06/24 02:54:18;;;;;;;;;;;26.80;43.40;;;;;;8466990;28;20062;-40
2022/06/24 02:58:19;;;;;;;3.03;1.40;;;26.80;43.50;;;;;;8465683;28;19920;-41
2022/06/24 03:02:19;;;;;;;3.33;1.20;;;26.80;43.50;;;;;;8466004;28;20115;-41
2022/06/24 03:06:20;;;;;;;;;;;26.80;43.50;;;;;;8466294;28;20040;-40
2022/06/24 03:10:21;;;;;;;2.10;1.53;;;26.80;43.50;;;;;;8465409;28;20060;-40
2022/06/24 03:14:22;;;;;;;;;;;26.80;43.50;;;;;;8466600;28;20062;-40
2022/06/24 03:18:24;;;;;;;1.60;1.43;;;26.70;43.40;;;;;;8465725;28;20002;-41
2022/06/24 03:22:25;;;;;;;5.90;1.40;;;26.80;43.50;;;;;;8465035;28;20058;-42
2022/06/24 03:26:25;;;;;;;;;;;26.70;43.50;;;;;;8465510;27;20039;-40
2022/06/24 03:30:26;;;;;;;2.57;1.57;;;26.70;43.50;;;;;;8463836;28;19912;-40
2022/06/24 03:34:26;;;;;;;;;;;26.70;43.50;;;;;;8465231;28;20035;-41
2022/06/24 03:38:27;;;;;;;2.63;1.40;;;26.70;43.50;;;;;;8464804;28;19926;-41
2022/06/24 03:42:27;;;;;;;;;;;26.70;43.60;;;;;;8465111;28;20428;-41
2022/06/24 03:46:28;;;;;;;2.67;1.40;;;26.70;43.50;;;;;;8464261;27;19925;-41
2022/06/24 03:50:29;;;;;;;;;;;26.70;43.50;;;;;;8464747;28;20023;-40
2022/06/24 03:54:29;;;;;;;3.13;1.30;;;26.70;43.50;;;;;;8464543;28;19912;-41
2022/06/24 03:58:29;;;;;;;;;;;26.70;43.50;;;;;;8464175;28;20047;-40
2022/06/24 04:02:30;;;;;;;3.77;1.57;;;26.70;43.50;;;;;;8449040;28;19912;-41
2022/06/24 04:06:30;;;;;;;1.92;1.60;;;26.60;43.50;;;;;;8439413;28;20028;-41
2022/06/24 04:10:31;;;;;;;;;;;26.60;43.50;;;;;;8463857;28;20040;-40
2022/06/24 04:18:51;;;;;;;3.47;2.03;;;26.60;43.60;;;;;;8463642;28;20054;-41
2022/06/24 04:22:51;;;;;;;;;;;26.60;43.50;;;;;;8463549;28;20035;-40
2022/06/24 04:26:52;;;;;;;2.33;1.60;;;26.60;43.60;;;;;;8463317;28;20003;-41
2022/06/24 04:30:52;;;;;;;;;;;26.60;43.60;;;;;;8464073;28;20032;-41
2022/06/24 04:34:52;;;;;;;2.00;1.40;;;26.60;43.60;;;;;;8463043;28;19908;-41
2022/06/24 04:38:53;;;;;;;;;;;26.60;43.60;;;;;;8462707;28;20130;-41
2022/06/24 04:42:53;;;;;;;3.43;1.80;;;26.60;43.60;;;;;;8463148;28;19912;-41
2022/06/24 04:46:54;;;;;;;;;;;26.60;43.60;;;;;;8463092;28;20057;-41
2022/06/24 04:50:55;;;;;;;4.63;1.47;;;26.60;43.60;;;;;;8463212;28;19977;-41
2022/06/24 04:54:55;;;;;;;;;;;26.60;43.60;;;;;;8463742;28;20027;-40
2022/06/24 04:58:56;;;;;;;2.90;2.23;;;26.50;43.60;;;;;;8462404;28;19924;-41
2022/06/24 05:02:56;;;;;;;;;;;26.50;43.60;;;;;;8463189;28;20061;-41
2022/06/24 05:06:57;;;;;;;1.70;1.40;;;26.50;43.60;;;;;;8462837;28;19961;-41
2022/06/24 05:10:57;;;;;;;;;;;26.50;43.60;;;;;;8462726;28;20084;-41
2022/06/24 05:14:58;;;;;;;3.27;1.40;;;26.50;43.60;;;;;;8462807;28;19915;-41
2022/06/24 05:18:59;;;;;;;2.33;1.55;;;26.50;43.60;;;;;;8462545;28;20500;-41
2022/06/24 05:22:59;;;;;;;;;;;26.50;43.70;;;;;;8462477;28;20059;-40
2022/06/24 05:27:00;;;;;;;3.00;1.70;;;26.50;43.60;;;;;;8462457;28;20437;-41
2022/06/24 05:31:00;;;;;;;;;;;26.50;43.70;;;;;;8462672;28;20028;-41
2022/06/24 05:35:01;;;;;;;3.33;1.50;;;26.50;43.60;;;;;;8462026;28;19908;-41
2022/06/24 05:39:03;;;;;;;1.80;1.50;;;26.50;43.70;;;;;;8462368;28;20040;-41
2022/06/24 05:43:03;;;;;;;3.65;2.03;;;26.50;43.60;;;;;;8462226;28;20035;-41
2022/06/24 05:47:04;;;;;;;;;;;26.50;43.60;;;;;;8462085;28;20059;-40
2022/06/24 05:51:23;;;;;;;2.23;1.70;;;26.50;43.60;;;;;;8464697;28;19915;-41
2022/06/24 05:55:23;;;;;;;3.75;1.60;;;26.50;43.60;;;;;;8468037;28;20032;-40
2022/06/24 05:59:24;;;;;;;;;;;26.50;43.70;;;;;;8468437;28;20040;-41
2022/06/24 06:03:26;;;;;;;2.50;1.13;;;26.50;43.60;;;;;;8467957;27;19970;-40
2022/06/24 06:07:27;;;;;;;3.90;1.55;;;26.50;43.60;;;;;;8467483;28;20031;-40
2022/06/24 06:11:27;;;;;;;;;;;26.50;43.60;;;;;;8468116;28;20054;-40
2022/06/24 06:15:29;;;;;;;1.77;1.30;;;26.50;43.60;;;;;;8467829;28;20394;-40
2022/06/24 06:19:32;;;;;;;2.45;1.15;;;26.50;43.70;;;;;;8466833;27;20565;-40
2022/06/24 06:23:33;;;;;;;1.48;1.13;;;26.50;43.60;;;;;;8467635;28;20111;-40
2022/06/24 06:27:36;;;;;;;3.05;1.33;;;26.60;43.60;;;;;;8467292;28;20035;-40
2022/06/24 06:31:37;;;;;;;3.15;1.52;;;26.50;43.60;;;;;;8466703;28;20031;-41
2022/06/24 06:35:37;;;;;;;;;;;26.50;43.60;;;;;;8467818;28;20038;-40
2022/06/24 06:39:38;;;;;;;2.93;1.30;;;26.60;43.60;;;;;;8466601;27;20387;-40
2022/06/24 06:43:38;;;;;;;;;;;26.60;43.60;;;;;;8466664;28;20028;-41
2022/06/24 06:47:39;;;;;;;2.30;1.47;;;26.50;43.60;;;;;;8466599;28;20007;-41
2022/06/24 06:51:40;;;;;;;2.15;1.50;;;26.50;43.50;;;;;;8466208;28;20070;-41
2022/06/24 06:55:40;;;;;;;;;;;26.60;43.60;;;;;;8466311;28;20093;-41
2022/06/24 06:59:41;;;;;;;3.17;1.67;;;26.60;43.60;;;;;;8466242;28;19924;-41
2022/06/24 07:03:41;;;;;;;;;;;26.60;43.60;;;;;;8465514;28;20036;-41
2022/06/24 07:07:42;;;;;;;1.73;1.63;;;26.50;43.50;;;;;;8465360;27;19954;-41
2022/06/24 07:11:42;;;;;;;;;;;26.60;43.60;;;;;;8465108;28;20032;-41
2022/06/24 07:15:43;;;;;;;3.73;1.87;;;26.60;43.60;;;;;;8465816;28;19919;-41
2022/06/24 07:19:43;;;;;;;;;;;26.60;43.60;;;;;;8465329;28;20046;-41
2022/06/24 07:23:44;;;;;;;1.97;1.57;;;26.60;43.50;;;;;;8465816;28;19965;-41
2022/06/24 07:27:44;;;;;;;;;;;26.60;43.50;;;;;;8465752;28;20035;-41
2022/06/24 07:31:47;;;;;;;2.07;1.70;;;26.60;43.50;;;;;;8464913;28;19908;-41
2022/06/24 07:35:48;;;;;;;1.70;1.50;;;26.60;43.60;;;;;;8465300;28;20032;-41
2022/06/24 07:39:48;;;;;;;;;;;26.60;43.60;;;;;;8465098;28;20054;-41
2022/06/24 07:43:49;;;;;;;2.40;1.40;;;26.60;43.50;;;;;;8464404;28;19941;-41
2022/06/24 07:47:49;;;;;;;;;;;26.60;43.50;;;;;;8465245;28;20032;-41
2022/06/24 07:51:50;;;;;;;2.57;2.00;;;26.60;43.50;;;;;;8464706;28;19997;-41
2022/06/24 08:00:09;;;;;;;2.92;1.63;;;26.70;43.60;;;;;;8464467;28;19966;-41
2022/06/24 08:04:10;;;;;;;;;;;26.60;43.60;;;;;;8464763;28;20382;-41
2022/06/24 08:08:11;;;;;;;5.38;2.10;;;26.70;43.60;;;;;;8463458;28;19911;-41
2022/06/24 08:12:11;;;;;;;;;;;26.70;43.60;;;;;;8464456;28;20495;-40
2022/06/24 08:16:12;;;;;;;1.87;1.70;;;26.70;43.60;;;;;;8463900;27;19915;-40
2022/06/24 08:20:12;;;;;;;;;;;26.70;43.60;;;;;;8463534;28;20062;-41
2022/06/24 08:24:14;;;;;;;1.97;1.43;;;26.70;44.10;;;;;;8463590;28;19959;-41
2022/06/24 08:28:14;;;;;;;2.63;1.67;;;26.70;43.60;;;;;;8463307;28;20027;-41
2022/06/24 08:32:15;;;;;;;;;;;26.70;43.60;;;;;;8463510;28;20036;-42
2022/06/24 08:36:15;;;;;;;1.57;1.47;;;26.70;43.60;;;;;;8463693;28;19994;-41
2022/06/24 08:40:16;;;;;;;;;;;26.70;43.50;;;;;;8463563;28;20048;-41
2022/06/24 08:44:17;;;;;;;1.97;1.67;;;26.70;43.60;;;;;;8463149;28;19920;-41
2022/06/24 08:48:19;;;;;;;;;;;26.80;43.60;;;;;;8463513;28;20042;-41
2022/06/24 08:52:20;;;;;;;2.10;1.80;;;26.80;43.60;;;;;;8462765;28;20372;-41
2022/06/24 08:56:20;;;;;;;4.65;2.05;;;26.80;43.60;;;;;;8463643;28;20541;-41
2022/06/24 09:00:21;;;;;;;;;;;26.80;43.60;;;;;;8463256;28;20047;-41
2022/06/24 09:04:23;;;;;;;3.10;1.87;;;26.80;43.50;;;;;;8462285;28;20236;-42
2022/06/24 09:08:32;;;;;;;2.05;1.75;;;26.80;43.40;;;;;;8461441;28;20153;-42
2022/06/24 09:12:41;;;;;;;3.20;2.38;;;26.80;43.40;;;;;;8462822;28;20027;-42
2022/06/24 09:16:42;;;;;;;2.08;1.83;;;26.80;43.40;;;;;;8462463;28;20412;-42
2022/06/24 09:20:42;;;;;;;;;;;26.80;43.40;;;;;;8462835;28;20047;-42
2022/06/24 09:24:47;;;;;;;4.10;2.37;;;26.90;43.40;;;;;;8462956;28;19923;-42
2022/06/24 09:28:55;;;;;;;2.92;2.13;;;26.90;43.40;;;;;;8468720;27;20024;-41
2022/06/24 09:32:55;;;;;;;3.70;2.00;;;26.80;43.30;;;;;;8469347;27;20547;-41
2022/06/24 09:36:56;;;;;;;;;;;26.90;43.40;;;;;;8469610;28;20035;-40
2022/06/24 09:41:04;;;;;;;2.70;1.93;;;26.80;43.30;;;;;;8468167;27;19923;-40
2022/06/24 09:45:05;;;;;;;2.33;2.10;;;26.80;43.30;;;;;;8468335;28;20032;-41
2022/06/24 09:49:10;;;;;;;2.88;1.65;;;26.90;43.50;;;;;;8468476;28;20081;-41
2022/06/24 09:53:12;;;;;;;2.72;2.00;;;26.90;43.30;;;;;;8467842;28;20039;-40
2022/06/24 09:57:13;;;;;;;3.08;1.90;;;26.90;43.30;;;;;;8468462;28;20096;-40
2022/06/24 10:01:20;;;;;;;1.90;1.70;;;26.90;43.30;;;;;;8467909;28;20072;-40
2022/06/24 10:05:22;;;;;;;2.92;2.45;;;26.90;43.20;;;;;;8458068;28;20201;-40
2022/06/24 10:09:25;;;;;;;3.53;2.00;;;26.90;43.20;;;;;;8467713;28;20088;-40
2022/06/24 10:13:32;;;;;;;3.17;2.00;;;26.90;43.20;;;;;;8467361;27;20028;-40
2022/06/24 10:17:34;;;;;;;2.50;2.28;;;26.90;43.10;;;;;;8467749;28;20337;-40
2022/06/24 10:21:35;;;;;;;2.10;1.65;;;26.90;43.10;;;;;;8467308;28;20115;-40
2022/06/24 10:25:48;;;;;;;2.58;1.88;;;26.90;43.10;;;;;;8467007;27;20039;-40
2022/06/24 10:29:49;;;;;;;2.70;1.67;;;26.90;43.00;;;;;;8467290;28;20461;-40
2022/06/24 10:33:54;;;;;;;;;;;27.00;43.10;;;;;;8467461;28;20047;-41
2022/06/24 10:37:55;;;;;;;3.03;1.58;;;27.00;43.00;;;;;;8466310;27;20372;-41
2022/06/24 10:41:58;;;;;;;;;;;27.00;43.00;;;;;;8467303;28;20096;-40
2022/06/24 10:46:11;;;;;;;3.50;2.05;;;27.10;43.00;;;;;;8466690;28;19912;-40
2022/06/24 10:50:14;;;;;;;1.98;1.42;;;27.10;43.00;;;;;;8465991;28;20484;-40
2022/06/24 10:54:15;;;;;;;1.83;1.63;;;27.10;42.90;;;;;;8466401;28;20055;-40
2022/06/24 10:58:17;;;;;;;;;;;27.10;42.90;;;;;;8466124;28;20044;-40
2022/06/24 11:02:19;;;;;;;2.58;1.40;;;27.10;42.90;;;;;;8466351;27;19916;-41
2022/06/24 11:06:20;;;;;;;3.03;1.98;;;27.10;42.80;;;;;;8465918;28;20036;-41
2022/06/24 11:10:23;;;;;;;3.00;1.70;;;27.10;42.90;;;;;;8465422;28;20024;-40
2022/06/24 11:14:25;;;;;;;2.85;1.80;;;27.10;42.80;;;;;;8465569;28;20035;-40
2022/06/24 11:18:31;;;;;;;2.35;1.83;;;27.10;42.80;;;;;;8465667;28;20177;-40
2022/06/24 11:22:42;;;;;;;2.15;1.48;;;27.00;42.80;;;;;;8465294;27;20396;-40
2022/06/24 11:27:02;;;;;;;1.63;1.52;;;27.00;42.80;;;;;;8465399;28;20040;-42
2022/06/24 11:31:20;;;;;;;3.07;1.43;;;27.00;42.80;;;;;;8465066;28;20497;-42
2022/06/24 11:35:22;;;;;;;2.08;1.73;;;27.00;42.80;;;;;;8464997;28;20031;-41
2022/06/24 11:39:22;;;;;;;2.03;1.80;;;27.00;42.80;;;;;;8464985;28;20152;-39
2022/06/24 11:43:23;;;;;;;;;;;27.00;42.80;;;;;;8465107;28;20077;-40
2022/06/24 11:47:31;;;;;;;2.33;1.70;;;27.00;42.80;;;;;;8464659;28;19929;-40
2022/06/24 11:51:31;;;;;;;2.25;1.70;;;27.00;42.80;;;;;;8464652;28;20112;-41
2022/06/24 11:55:36;;;;;;;;;;;27.00;42.80;;;;;;8464369;27;20115;-41
2022/06/24 11:59:37;;;;;;;2.08;1.63;;;27.00;42.80;;;;;;8464323;28;20018;-41
2022/06/24 12:03:38;;;;;;;1.80;1.50;;;27.00;42.90;;;;;;8464180;28;20031;-39
2022/06/24 12:07:39;;;;;;;;;;;26.90;42.80;;;;;;8464281;28;20480;-40
2022/06/24 12:11:40;;;;;;;;;;;26.90;42.80;;;;;;8464433;28;20416;-40
2022/06/24 12:15:40;;;;;;;;;;;26.90;42.80;;;;;;8464099;28;20041;-40
2022/06/24 12:20:01;;;;;;;;;;;26.90;42.80;;;;;;8463595;28;20364;-40
2022/06/24 12:24:18;;;;;;;;;;;26.90;42.80;;;;;;8464353;28;20417;-41
2022/06/24 12:28:19;;;;;;;;;;;26.90;42.80;;;;;;8463677;28;19998;-41
2022/06/24 12:32:20;;;;;;;;;;;26.90;42.80;;;;;;8463771;28;20002;-42
2022/06/24 12:36:21;;;;;;;;;;;26.90;42.80;;;;;;8463572;28;20318;-40
2022/06/24 12:40:22;;;;;;;;;;;26.90;42.80;;;;;;8462620;28;19915;-40
2022/06/24 12:44:23;;;;;;;;;;;26.90;42.80;;;;;;8450448;28;20010;-41
2022/06/24 12:52:44;;;;;;;;;;;26.90;42.80;;;;;;8446686;28;20349;-41
2022/06/24 12:56:44;;;;;;;;;;;26.90;42.80;;;;;;8443039;28;19919;-41
2022/06/24 13:00:45;;;;;;;;;;;26.90;42.80;;;;;;8444842;28;20010;-40
2022/06/24 13:04:45;;;;;;;;;;;26.90;42.80;;;;;;8463642;27;19911;-42
2022/06/24 13:08:45;;;;;;;;;;;26.80;42.80;;;;;;8469889;28;20280;-40
2022/06/24 13:12:46;;;;;;;;;;;26.80;42.80;;;;;;8469015;28;20041;-40
2022/06/24 13:16:46;;;;;;;;;;;26.90;42.90;;;;;;8441991;28;20397;-41
2022/06/24 13:20:47;;;;;;;;;;;26.80;42.90;;;;;;8458160;27;19931;-41
2022/06/24 13:24:47;;;;;;;;;;;26.80;42.90;;;;;;8453635;28;19998;-40
2022/06/24 13:28:48;;;;;;;;;;;26.80;43.00;;;;;;8448577;28;19916;-40
2022/06/24 13:32:48;;;;;;;;;;;26.80;43.00;;;;;;8451229;28;19920;-41
2022/06/24 13:36:49;;;;;;;;;;;26.80;43.00;;;;;;8449571;28;19916;-41
2022/06/24 13:40:49;;;;;;;;;;;26.80;43.00;;;;;;8452034;28;19979;-41
2022/06/24 13:44:52;;;;;;;;;;;26.80;43.10;;;;;;8449628;28;19927;-41
2022/06/24 13:48:56;;;;;;;;;;;26.80;43.10;;;;;;8450992;28;19911;-41
2022/06/24 13:52:57;;;;;;;;;;;26.80;43.10;;;;;;8446495;28;19919;-40
2022/06/24 13:56:57;;;;;;;;;;;26.80;43.20;;;;;;8461628;28;20356;-41
2022/06/24 14:00:58;;;;;;;;;;;26.80;43.20;;;;;;8455419;28;20052;-41
2022/06/24 14:04:59;;;;;;;;;;;26.80;43.30;;;;;;8453170;28;19961;-41
2022/06/24 14:08:59;;;;;;;;;;;26.70;43.20;;;;;;8454271;28;19912;-45
2022/06/24 14:13:00;;;;;;;;;;;26.70;43.30;;;;;;8464080;28;19972;-41
2022/06/24 14:17:01;;;;;;;;;;;26.70;43.30;;;;;;8458501;28;20355;-40
2022/06/24 14:21:03;;;;;;;;;;;26.70;43.30;;;;;;8461673;28;19926;-41
2022/06/24 14:25:03;;;;;;;;;;;26.70;43.30;;;;;;8459572;28;20002;-40
2022/06/24 14:29:04;;;;;;;;;;;26.70;43.30;;;;;;8451526;28;19919;-41
2022/06/24 14:33:04;;;;;;;;;;;26.70;43.30;;;;;;8448428;28;19919;-40
2022/06/24 14:40:10;;;;;;;;;;;26.70;43.40;;;;;;8449194;28;19985;-40
2022/06/24 14:41:26;;;;;;;;;;;26.70;43.40;;;;;;8449759;28;19927;-40
2022/06/24 14:45:27;;;;;;;;;;;26.60;43.30;;;;;;8451481;28;19920;-41
2022/06/24 14:49:27;;;;;;;;;;;26.60;43.40;;;;;;8457305;28;20240;-41
2022/06/24 14:53:28;;;;;;;;;;;26.60;43.40;;;;;;8465811;28;19964;-41
2022/06/24 14:57:28;;;;;;;;;;;26.60;43.40;;;;;;8461595;28;19915;-41
2022/06/24 15:01:29;;;;;;;;;;;26.60;43.40;;;;;;8455742;28;19920;-41
2022/06/24 15:05:29;;;;;;;;;;;26.60;43.40;;;;;;8451951;28;19923;-41
2022/06/24 15:09:29;;;;;;;;;;;26.60;43.40;;;;;;8447425;28;19912;-41
2022/06/24 15:13:30;;;;;;;;;;;26.60;43.40;;;;;;8451861;28;19911;-41
2022/06/24 15:17:30;;;;;;;;;;;26.60;43.40;;;;;;8464583;28;19992;-41
2022/06/24 15:21:31;;;;;;;;;;;26.60;43.40;;;;;;8465783;28;20006;-41
2022/06/24 15:25:32;;;;;;;;;;;26.60;43.40;;;;;;8453067;28;19919;-41
2022/06/24 15:29:33;;;;;;;;;;;26.60;43.40;;;;;;8436112;28;19915;-41
2022/06/24 15:33:33;;;;;;;;;;;26.60;43.40;;;;;;8445486;28;19950;-41
2022/06/24 15:37:33;;;;;;;;;;;26.50;43.40;;;;;;8452664;28;19964;-41
2022/06/24 15:41:34;;;;;;;;;;;26.50;43.40;;;;;;8465168;28;20385;-41
2022/06/24 15:45:34;;;;;;;;;;;26.50;43.40;;;;;;8465164;28;20288;-41
2022/06/24 15:49:35;;;;;;;;;;;26.50;43.40;;;;;;8464738;28;19967;-41
2022/06/24 15:53:35;;;;;;;;;;;26.50;43.40;;;;;;8464867;28;20369;-41
2022/06/24 15:57:36;;;;;;;;;;;26.50;43.50;;;;;;8464774;28;19918;-41
2022/06/24 16:01:36;;;;;;;;;;;26.50;43.50;;;;;;8464233;28;19951;-41
2022/06/24 16:05:37;;;;;;;;;;;26.50;43.50;;;;;;8463558;28;20007;-42
2022/06/24 16:09:37;;;;;;;;;;;26.50;43.50;;;;;;8464692;28;19908;-41
2022/06/24 16:13:39;;;;;;;;;;;26.50;43.50;;;;;;8464065;27;19980;-40
2022/06/24 16:17:40;;;;;;;;;;;26.50;43.50;;;;;;8464190;28;19919;-41
2022/06/24 16:21:40;;;;;;;;;;;26.50;43.50;;;;;;8464153;28;19992;-41
2022/06/24 16:29:59;;;;;;;;;;;26.40;43.50;;;;;;8470585;28;20326;-41
2022/06/24 16:34:01;;;;;;;;;;;26.50;43.50;;;;;;8463885;28;19911;-40
2022/06/24 16:38:02;;;;;;;;;;;26.50;43.60;;;;;;8463298;28;19911;-40
2022/06/24 16:42:03;;;;;;;;;;;26.50;43.60;;;;;;8463584;28;19911;-40
2022/06/24 16:46:04;;;;;;;;;;;26.40;43.50;;;;;;8463406;28;20339;-41
2022/06/24 16:50:05;;;;;;;;;;;26.40;43.50;;;;;;8463209;28;19968;-41
2022/06/24 16:54:05;;;;;;;;;;;26.40;43.60;;;;;;8463657;28;19912;-41
2022/06/24 16:58:07;;;;;;;;;;;26.40;43.60;;;;;;8463332;28;19923;-41
2022/06/24 17:02:07;;;;;;;;;;;26.40;43.60;;;;;;8462770;28;19918;-41
2022/06/24 17:06:08;;;;;;;;;;;26.40;43.60;;;;;;8463034;28;19920;-41
2022/06/24 17:10:09;;;;;;;;;;;26.40;43.60;;;;;;8463409;28;19907;-41
2022/06/24 17:14:09;;;;;;;;;;;26.40;43.60;;;;;;8462553;28;19911;-41
2022/06/24 17:18:10;;;;;;;;;;;26.40;43.60;;;;;;8462967;28;19916;-41
2022/06/24 17:22:10;;;;;;;;;;;26.40;43.60;;;;;;8462870;28;20337;-40
2022/06/24 17:26:11;;;;;;;;;;;26.30;43.50;;;;;;8462552;28;20877;-41
2022/06/24 17:30:11;;;;;;;;;;;26.30;43.50;;;;;;8463084;28;20265;-41
2022/06/24 17:34:13;;;;;;;;;;;26.40;43.60;;;;;;8462965;28;20387;-41
2022/06/24 17:38:14;;;;;;;;;;;26.30;43.50;;;;;;8462429;28;19916;-41
2022/06/24 17:42:14;;;;;;;;;;;26.40;43.60;;;;;;8462943;28;19919;-40
2022/06/24 17:46:16;;;;;;;;;;;26.40;43.60;;;;;;8463827;28;19918;-41
2022/06/24 17:50:16;;;;;;;;;;;26.40;43.60;;;;;;8469287;27;19930;-41
2022/06/24 17:54:17;;;;;;;;;;;26.30;43.60;;;;;;8468753;28;19930;-41
2022/06/24 17:58:17;;;;;;;;;;;26.30;43.60;;;;;;8468418;27;19927;-41
2022/06/24 18:02:18;;;;;;;;;;;26.30;43.60;;;;;;8468366;28;20387;-41
2022/06/24 18:06:18;;;;;;;;;;;26.30;43.60;;;;;;8468388;28;19907;-41
2022/06/24 18:10:19;;;;;;;;;;;26.30;43.60;;;;;;8468250;28;20377;-41
2022/06/24 18:14:20;;;;;;;;;;;26.30;43.70;;;;;;8468429;27;19939;-41
2022/06/24 18:18:20;;;;;;;;;;;26.30;43.60;;;;;;8468001;28;19942;-41
2022/06/24 18:22:20;;;;;;;;;;;26.20;43.60;;;;;;8467474;27;19970;-41
2022/06/24 18:26:21;;;;;;;;;;;26.30;43.70;;;;;;8467914;28;20398;-41
2022/06/24 18:30:22;;;;;;;;;;;26.20;43.60;;;;;;8467920;28;19919;-41
2022/06/24 18:34:22;;;;;;;;;;;26.20;43.60;;;;;;8467098;28;20292;-41
2022/06/24 18:38:23;;;;;;;;;;;26.30;43.70;;;;;;8467322;28;19965;-41
2022/06/24 18:42:24;;;;;;;;;;;26.20;43.60;;;;;;8467235;28;19907;-41
2022/06/24 18:46:24;;;;;;;;;;;26.20;43.60;;;;;;8466785;28;19965;-41
2022/06/24 18:50:25;;;;;;;;;;;26.20;43.70;;;;;;8467160;28;19935;-41
2022/06/24 18:54:25;;;;;;;;;;;26.20;43.70;;;;;;8466976;28;19919;-41
2022/06/24 18:58:26;;;;;;;;;;;26.20;43.70;;;;;;8465321;28;19916;-41
2022/06/24 19:02:26;;;;;;;;;;;26.20;43.70;;;;;;8466613;28;19907;-41
2022/06/24 19:06:27;;;;;;;;;;;26.20;43.70;;;;;;8466651;28;20382;-41
2022/06/24 19:10:27;;;;;;;;;;;26.20;43.70;;;;;;8465360;28;19916;-41
2022/06/24 19:14:28;;;;;;;;;;;26.20;43.70;;;;;;8466612;28;20413;-41
2022/06/24 19:22:47;;;;;;;;;;;26.10;43.70;;;;;;8465527;28;19922;-41
2022/06/24 19:26:48;;;;;;;;;;;26.10;43.70;;;;;;8466012;28;19920;-41
2022/06/24 19:30:48;;;;;;;;;;;26.10;43.80;;;;;;8465877;28;19923;-41
2022/06/24 19:34:49;;;;;;;;;;;26.10;43.80;;;;;;8465479;28;19916;-41
2022/06/24 19:38:50;;;;;;;;;;;26.10;43.80;;;;;;8465366;28;20015;-41
2022/06/24 19:42:51;;;;;;;;;;;26.10;43.80;;;;;;8465320;27;20441;-41
2022/06/24 19:46:52;;;;;;;;;;;26.00;43.70;;;;;;8464849;27;19911;-41
2022/06/24 19:50:52;;;;;;;;;;;26.10;43.90;;;;;;8465109;28;20332;-41
2022/06/24 19:54:53;;;;;;;;;;;26.10;43.90;;;;;;8464873;28;19927;-41
2022/06/24 19:58:54;;;;;;;;;;;26.10;43.80;;;;;;8464286;28;20376;-41
2022/06/24 20:07:13;;;;;;;;;;;26.00;43.90;;;;;;8464585;28;19919;-41
2022/06/24 20:15:33;;;;;;;;;;;26.00;43.90;;;;;;8464485;28;19957;-41
2022/06/24 20:19:34;;;;;;;;;;;26.00;43.90;;;;;;8463596;28;19916;-41
2022/06/24 20:23:37;;;;;;;;;;;26.00;43.90;;;;;;8464389;28;20339;-41
2022/06/24 20:27:37;;;;;;;;;;;26.00;44.00;;;;;;8464063;28;19994;-41
2022/06/24 20:31:38;;;;;;;;;;;25.90;43.90;;;;;;8463700;28;19908;-41
2022/06/24 20:35:38;;;;;;;;;;;26.00;43.90;;;;;;8464087;28;19915;-41
2022/06/24 20:39:39;;;;;;;;;;;25.90;43.90;;;;;;8463795;28;19927;-41
2022/06/24 20:43:39;;;;;;;;;;;25.90;43.90;;;;;;8463215;28;19911;-41
2022/06/24 20:47:40;;;;;;;;;;;25.90;43.90;;;;;;8463463;28;19911;-41
2022/06/24 20:51:40;;;;;;;;;;;25.90;43.90;;;;;;8463569;28;20353;-41
2022/06/24 20:55:42;;;;;;;;;;;25.90;43.90;;;;;;8462786;28;19947;-41
2022/06/24 20:59:43;;;;;;;;;;;25.90;43.90;;;;;;8463465;28;19942;-41
2022/06/24 21:03:43;;;;;;;;;;;25.90;43.90;;;;;;8463322;28;19912;-41
2022/06/24 21:07:44;;;;;;;;;;;25.90;43.90;;;;;;8462755;28;19911;-41
2022/06/24 21:11:44;;;;;;;;;;;25.90;43.90;;;;;;8463492;28;19908;-41
2022/06/24 21:15:46;;;;;;;;;;;25.90;43.90;;;;;;8463154;28;19914;-41
2022/06/24 21:19:46;;;;;;;;;;;25.80;43.90;;;;;;8462571;28;19919;-41
2022/06/24 21:23:47;;;;;;;;;;;25.80;43.90;;;;;;8468665;28;19927;-41
2022/06/24 21:27:47;;;;;;;;;;;25.80;43.90;;;;;;8469770;28;20010;-41
2022/06/24 21:31:48;;;;;;;;;;;25.80;43.90;;;;;;8469458;28;19991;-41
2022/06/24 21:35:48;;;;;;;;;;;25.80;43.90;;;;;;8469484;28;19984;-41
2022/06/24 21:39:49;;;;;;;;;;;25.80;43.90;;;;;;8469346;28;19923;-41
2022/06/24 21:43:50;;;;;;;;;;;25.80;43.90;;;;;;8468955;28;20295;-41
2022/06/24 21:47:50;;;;;;;;;;;25.80;43.90;;;;;;8469295;28;19941;-41
2022/06/24 21:51:51;;;;;;;;;;;25.80;44.00;;;;;;8469075;28;19965;-41
2022/06/24 21:55:51;;;;;;;;;;;25.80;43.90;;;;;;8468478;28;20299;-41
2022/06/24 21:59:52;;;;;;;;;;;25.80;43.90;;;;;;8468734;27;19927;-41
2022/06/24 22:03:52;;;;;;;;;;;25.70;43.90;;;;;;8466777;28;19916;-41
2022/06/24 22:07:53;;;;;;;;;;;25.80;44.00;;;;;;8467937;28;20044;-41
2022/06/24 22:11:53;;;;;;;;;;;25.70;43.90;;;;;;8468645;28;19907;-41
2022/06/24 22:15:53;;;;;;;;;;;25.70;43.90;;;;;;8468451;28;19919;-41
2022/06/24 22:19:54;;;;;;;;;;;25.70;43.90;;;;;;8467717;28;19919;-42
2022/06/24 22:23:54;;;;;;;;;;;25.70;43.90;;;;;;8468345;28;19918;-41
2022/06/24 22:27:55;;;;;;;;;;;25.70;44.00;;;;;;8467903;28;19915;-41
2022/06/24 22:31:56;;;;;;;;;;;25.70;44.00;;;;;;8467407;27;19943;-41
2022/06/24 22:35:56;;;;;;;;;;;25.70;44.00;;;;;;8467588;28;19919;-41
2022/06/24 22:39:57;;;;;;;;;;;25.70;44.00;;;;;;8467538;28;19916;-41
2022/06/24 22:43:57;;;;;;;;;;;25.60;44.00;;;;;;8467005;28;19911;-41
2022/06/24 22:47:58;;;;;;;;;;;25.60;43.90;;;;;;8467225;28;19918;-41
2022/06/24 22:51:58;;;;;;;;;;;25.60;43.90;;;;;;8467418;28;19915;-41
2022/06/24 22:55:59;;;;;;;;;;;25.70;44.00;;;;;;8466581;27;19947;-41
2022/06/24 22:59:59;;;;;;;;;;;25.70;44.00;;;;;;8466714;28;20008;-41
2022/06/24 23:03:59;;;;;;;;;;;25.60;43.90;;;;;;8466913;28;20363;-40